sensor_id;sensor_type;location;lat;lon;timestamp;noise_LAeq;noise_LA_min;noise_LA_max;noise_LA01;noise_LA95
37223;Laerm;28026;48.562;14.440;2023-02-13T00:02:28;39.85;32.93;57.81;;
37223;Laerm;28026;48.562;14.440;2023-02-13T00:04:58;41.71;32.93;58.18;;
37223;Laerm;28026;48.562;14.440;2023-02-13T00:07:29;42.72;33.44;58.24;;
37223;Laerm;28026;48.562;14.440;2023-02-13T00:10:00;39.78;32.93;58.93;;
37223;Laerm;28026;48.562;14.440;2023-02-13T00:12:31;39.89;33.44;57.94;;
37223;Laerm;28026;48.562;14.440;2023-02-13T00:15:04;40.16;33.44;57.41;;
37223;Laerm;28026;48.562;14.440;2023-02-13T00:17:35;39.69;32.93;57.58;;
37223;Laerm;28026;48.562;14.440;2023-02-13T00:20:10;39.77;32.35;57.88;;
37223;Laerm;28026;48.562;14.440;2023-02-13T00:22:41;39.45;33.90;56.43;;
37223;Laerm;28026;48.562;14.440;2023-02-13T00:25:12;39.40;33.44;56.10;;
37223;Laerm;28026;48.562;14.440;2023-02-13T00:27:43;39.48;32.93;56.97;;
37223;Laerm;28026;48.562;14.440;2023-02-13T00:30:15;39.57;32.93;56.61;;
37223;Laerm;28026;48.562;14.440;2023-02-13T00:32:46;39.54;32.35;56.51;;
37223;Laerm;28026;48.562;14.440;2023-02-13T00:35:17;40.38;32.93;56.23;;
37223;Laerm;28026;48.562;14.440;2023-02-13T00:37:48;40.00;32.93;56.00;;
37223;Laerm;28026;48.562;14.440;2023-02-13T00:40:19;39.57;32.35;56.33;;
37223;Laerm;28026;48.562;14.440;2023-02-13T00:42:49;39.77;32.35;58.29;;
37223;Laerm;28026;48.562;14.440;2023-02-13T00:45:21;40.02;33.90;58.73;;
37223;Laerm;28026;48.562;14.440;2023-02-13T00:47:52;40.45;33.90;57.53;;
37223;Laerm;28026;48.562;14.440;2023-02-13T00:50:22;39.47;33.44;57.51;;
37223;Laerm;28026;48.562;14.440;2023-02-13T00:52:53;39.50;33.44;56.73;;
37223;Laerm;28026;48.562;14.440;2023-02-13T00:55:24;39.91;32.93;57.88;;
37223;Laerm;28026;48.562;14.440;2023-02-13T00:57:55;40.55;32.93;58.18;;
37223;Laerm;28026;48.562;14.440;2023-02-13T01:00:26;40.11;33.44;57.52;;
37223;Laerm;28026;48.562;14.440;2023-02-13T01:02:57;39.68;33.44;57.32;;
37223;Laerm;28026;48.562;14.440;2023-02-13T01:05:28;40.13;32.35;58.84;;
37223;Laerm;28026;48.562;14.440;2023-02-13T01:07:59;39.82;33.44;57.56;;
37223;Laerm;28026;48.562;14.440;2023-02-13T01:10:31;39.97;30.89;57.84;;
37223;Laerm;28026;48.562;14.440;2023-02-13T01:13:01;40.41;33.90;57.61;;
37223;Laerm;28026;48.562;14.440;2023-02-13T01:15:33;40.10;32.93;58.39;;
37223;Laerm;28026;48.562;14.440;2023-02-13T01:18:04;40.03;33.44;57.87;;
37223;Laerm;28026;48.562;14.440;2023-02-13T01:20:35;40.15;33.90;58.84;;
37223;Laerm;28026;48.562;14.440;2023-02-13T01:23:06;40.24;33.44;57.91;;
37223;Laerm;28026;48.562;14.440;2023-02-13T01:25:43;39.84;33.44;58.24;;
37223;Laerm;28026;48.562;14.440;2023-02-13T01:28:14;40.11;32.35;58.15;;
37223;Laerm;28026;48.562;14.440;2023-02-13T01:30:44;40.53;32.93;59.04;;
37223;Laerm;28026;48.562;14.440;2023-02-13T01:33:15;39.88;33.44;58.81;;
37223;Laerm;28026;48.562;14.440;2023-02-13T01:35:47;41.12;33.44;58.53;;
37223;Laerm;28026;48.562;14.440;2023-02-13T01:38:19;40.42;33.44;57.86;;
37223;Laerm;28026;48.562;14.440;2023-02-13T01:40:53;40.44;34.31;58.54;;
37223;Laerm;28026;48.562;14.440;2023-02-13T01:43:50;40.13;33.90;58.62;;
37223;Laerm;28026;48.562;14.440;2023-02-13T01:49:12;39.88;33.44;57.39;;
37223;Laerm;28026;48.562;14.440;2023-02-13T01:51:48;40.34;33.44;58.28;;
37223;Laerm;28026;48.562;14.440;2023-02-13T01:54:32;40.91;33.90;58.32;;
37223;Laerm;28026;48.562;14.440;2023-02-13T01:57:27;39.95;33.44;58.17;;
37223;Laerm;28026;48.562;14.440;2023-02-13T02:00:13;41.68;33.44;58.61;;
37223;Laerm;28026;48.562;14.440;2023-02-13T02:02:57;40.83;33.44;58.60;;
37223;Laerm;28026;48.562;14.440;2023-02-13T02:05:34;40.01;32.35;58.34;;
37223;Laerm;28026;48.562;14.440;2023-02-13T02:08:11;40.11;33.44;58.36;;
37223;Laerm;28026;48.562;14.440;2023-02-13T02:10:44;40.01;32.58;58.37;;
37223;Laerm;28026;48.562;14.440;2023-02-13T02:13:20;40.13;33.44;57.74;;
37223;Laerm;28026;48.562;14.440;2023-02-13T02:15:51;40.11;33.90;58.42;;
37223;Laerm;28026;48.562;14.440;2023-02-13T02:18:23;40.23;32.58;58.40;;
37223;Laerm;28026;48.562;14.440;2023-02-13T02:21:16;40.41;33.90;58.96;;
37223;Laerm;28026;48.562;14.440;2023-02-13T02:24:31;41.01;34.31;58.37;;
37223;Laerm;28026;48.562;14.440;2023-02-13T02:40:09;41.47;34.69;58.14;;
37223;Laerm;28026;48.562;14.440;2023-02-13T02:43:24;40.61;33.90;58.91;;
37223;Laerm;28026;48.562;14.440;2023-02-13T02:46:50;40.33;33.44;59.31;;
37223;Laerm;28026;48.562;14.440;2023-02-13T02:50:00;40.08;32.93;57.70;;
37223;Laerm;28026;48.562;14.440;2023-02-13T02:56:24;41.09;34.31;58.15;;
37223;Laerm;28026;48.562;14.440;2023-02-13T02:59:16;41.15;32.35;57.67;;
37223;Laerm;28026;48.562;14.440;2023-02-13T03:02:12;40.97;35.04;58.37;;
37223;Laerm;28026;48.562;14.440;2023-02-13T03:05:14;42.18;34.69;58.28;;
37223;Laerm;28026;48.562;14.440;2023-02-13T03:08:06;41.03;34.69;57.79;;
37223;Laerm;28026;48.562;14.440;2023-02-13T03:10:37;40.23;34.31;57.15;;
37223;Laerm;28026;48.562;14.440;2023-02-13T03:13:48;40.91;32.93;58.21;;
37223;Laerm;28026;48.562;14.440;2023-02-13T03:16:24;41.33;35.01;58.22;;
37223;Laerm;28026;48.562;14.440;2023-02-13T03:20:11;40.22;32.93;58.23;;
37223;Laerm;28026;48.562;14.440;2023-02-13T03:23:19;40.11;33.44;57.22;;
37223;Laerm;28026;48.562;14.440;2023-02-13T03:29:12;40.28;33.90;57.49;;
37223;Laerm;28026;48.562;14.440;2023-02-13T03:33:22;41.04;33.90;57.49;;
37223;Laerm;28026;48.562;14.440;2023-02-13T03:35:42;41.69;34.69;57.63;;
37223;Laerm;28026;48.562;14.440;2023-02-13T03:39:00;40.34;33.44;58.49;;
37223;Laerm;28026;48.562;14.440;2023-02-13T03:41:54;41.59;35.36;57.18;;
37223;Laerm;28026;48.562;14.440;2023-02-13T03:44:54;41.68;34.31;57.93;;
37223;Laerm;28026;48.562;14.440;2023-02-13T03:47:50;42.18;34.69;57.64;;
37223;Laerm;28026;48.562;14.440;2023-02-13T03:50:26;40.98;33.97;58.20;;
37223;Laerm;28026;48.562;14.440;2023-02-13T03:53:08;40.94;33.90;59.29;;
37223;Laerm;28026;48.562;14.440;2023-02-13T03:55:47;41.17;34.31;58.11;;
37223;Laerm;28026;48.562;14.440;2023-02-13T03:58:48;41.90;35.31;57.98;;
37223;Laerm;28026;48.562;14.440;2023-02-13T04:01:44;40.66;33.44;57.73;;
37223;Laerm;28026;48.562;14.440;2023-02-13T04:05:00;40.41;33.90;57.48;;
37223;Laerm;28026;48.562;14.440;2023-02-13T04:07:34;41.82;32.93;58.69;;
37223;Laerm;28026;48.562;14.440;2023-02-13T04:10:15;40.81;34.31;58.18;;
37223;Laerm;28026;48.562;14.440;2023-02-13T04:13:33;42.63;33.44;58.74;;
37223;Laerm;28026;48.562;14.440;2023-02-13T04:17:01;40.42;33.90;58.94;;
37223;Laerm;28026;48.562;14.440;2023-02-13T04:19:14;40.83;33.90;57.41;;
37223;Laerm;28026;48.562;14.440;2023-02-13T04:21:56;40.96;32.58;58.57;;
37223;Laerm;28026;48.562;14.440;2023-02-13T04:24:28;42.09;35.94;58.56;;
37223;Laerm;28026;48.562;14.440;2023-02-13T04:26:59;41.28;34.69;58.48;;
37223;Laerm;28026;48.562;14.440;2023-02-13T04:29:30;41.05;35.04;58.45;;
37223;Laerm;28026;48.562;14.440;2023-02-13T04:32:01;41.63;34.69;57.47;;
37223;Laerm;28026;48.562;14.440;2023-02-13T04:34:32;41.27;35.36;58.38;;
37223;Laerm;28026;48.562;14.440;2023-02-13T04:37:03;42.69;35.36;59.05;;
37223;Laerm;28026;48.562;14.440;2023-02-13T04:39:34;41.31;34.69;59.14;;
37223;Laerm;28026;48.562;14.440;2023-02-13T04:42:05;41.46;33.90;57.55;;
37223;Laerm;28026;48.562;14.440;2023-02-13T04:44:36;41.56;33.90;58.09;;
37223;Laerm;28026;48.562;14.440;2023-02-13T04:47:07;41.84;34.31;60.36;;
37223;Laerm;28026;48.562;14.440;2023-02-13T04:49:37;42.16;33.44;59.20;;
37223;Laerm;28026;48.562;14.440;2023-02-13T04:52:08;42.15;34.31;59.07;;
37223;Laerm;28026;48.562;14.440;2023-02-13T04:54:39;41.59;34.69;59.46;;
37223;Laerm;28026;48.562;14.440;2023-02-13T04:57:10;41.78;35.04;58.84;;
37223;Laerm;28026;48.562;14.440;2023-02-13T04:59:41;42.03;35.36;58.69;;
37223;Laerm;28026;48.562;14.440;2023-02-13T05:02:12;41.46;34.69;58.44;;
37223;Laerm;28026;48.562;14.440;2023-02-13T05:04:43;42.19;35.36;59.94;;
37223;Laerm;28026;48.562;14.440;2023-02-13T05:07:14;41.42;34.31;58.22;;
37223;Laerm;28026;48.562;14.440;2023-02-13T05:09:45;41.91;33.90;59.53;;
37223;Laerm;28026;48.562;14.440;2023-02-13T05:12:15;43.57;35.36;58.50;;
37223;Laerm;28026;48.562;14.440;2023-02-13T05:14:46;41.61;32.93;58.68;;
37223;Laerm;28026;48.562;14.440;2023-02-13T05:17:17;41.64;33.90;60.06;;
37223;Laerm;28026;48.562;14.440;2023-02-13T05:19:48;42.55;34.69;60.04;;
37223;Laerm;28026;48.562;14.440;2023-02-13T05:22:19;42.60;34.69;58.86;;
37223;Laerm;28026;48.562;14.440;2023-02-13T05:25:08;43.36;35.04;60.04;;
37223;Laerm;28026;48.562;14.440;2023-02-13T05:27:39;42.56;35.04;58.91;;
37223;Laerm;28026;48.562;14.440;2023-02-13T05:30:11;43.75;35.36;58.82;;
37223;Laerm;28026;48.562;14.440;2023-02-13T05:32:43;43.55;35.04;58.87;;
37223;Laerm;28026;48.562;14.440;2023-02-13T05:35:14;42.59;35.01;58.80;;
37223;Laerm;28026;48.562;14.440;2023-02-13T05:37:45;42.45;34.69;59.50;;
37223;Laerm;28026;48.562;14.440;2023-02-13T05:40:16;42.66;34.69;60.73;;
37223;Laerm;28026;48.562;14.440;2023-02-13T05:42:47;43.20;32.93;58.94;;
37223;Laerm;28026;48.562;14.440;2023-02-13T05:45:18;43.80;35.36;60.88;;
37223;Laerm;28026;48.562;14.440;2023-02-13T05:47:48;43.49;35.04;59.11;;
37223;Laerm;28026;48.562;14.440;2023-02-13T05:50:19;43.17;35.94;59.81;;
37223;Laerm;28026;48.562;14.440;2023-02-13T05:52:50;43.54;34.31;59.44;;
37223;Laerm;28026;48.562;14.440;2023-02-13T05:55:21;43.22;35.31;59.50;;
37223;Laerm;28026;48.562;14.440;2023-02-13T05:57:56;43.18;35.94;58.08;;
37223;Laerm;28026;48.562;14.440;2023-02-13T06:00:27;42.95;35.66;57.54;;
37223;Laerm;28026;48.562;14.440;2023-02-13T06:02:58;42.98;35.66;58.40;;
37223;Laerm;28026;48.562;14.440;2023-02-13T06:05:29;43.43;36.20;57.21;;
37223;Laerm;28026;48.562;14.440;2023-02-13T06:08:00;43.39;36.69;56.81;;
37223;Laerm;28026;48.562;14.440;2023-02-13T06:10:31;43.43;36.45;57.10;;
37223;Laerm;28026;48.562;14.440;2023-02-13T06:13:02;43.14;35.94;56.61;;
37223;Laerm;28026;48.562;14.440;2023-02-13T06:15:32;43.46;34.31;57.63;;
37223;Laerm;28026;48.562;14.440;2023-02-13T06:18:05;43.85;37.32;56.49;;
37223;Laerm;28026;48.562;14.440;2023-02-13T06:20:36;43.99;36.20;58.31;;
37223;Laerm;28026;48.562;14.440;2023-02-13T06:23:07;44.06;36.20;57.82;;
37223;Laerm;28026;48.562;14.440;2023-02-13T06:25:38;44.34;35.94;59.49;;
37223;Laerm;28026;48.562;14.440;2023-02-13T06:28:09;43.60;37.12;57.63;;
37223;Laerm;28026;48.562;14.440;2023-02-13T06:30:40;43.64;37.12;59.26;;
37223;Laerm;28026;48.562;14.440;2023-02-13T06:33:11;43.62;37.35;58.52;;
37223;Laerm;28026;48.562;14.440;2023-02-13T06:35:42;44.31;37.32;58.25;;
37223;Laerm;28026;48.562;14.440;2023-02-13T06:38:12;44.36;37.88;58.52;;
37223;Laerm;28026;48.562;14.440;2023-02-13T06:40:45;44.04;37.88;57.83;;
37223;Laerm;28026;48.562;14.440;2023-02-13T06:43:17;44.41;36.69;58.40;;
37223;Laerm;28026;48.562;14.440;2023-02-13T06:45:47;44.93;38.67;58.73;;
37223;Laerm;28026;48.562;14.440;2023-02-13T06:48:21;43.81;37.88;58.43;;
37223;Laerm;28026;48.562;14.440;2023-02-13T06:50:52;45.56;37.32;61.24;;
37223;Laerm;28026;48.562;14.440;2023-02-13T06:53:24;44.14;37.32;58.50;;
37223;Laerm;28026;48.562;14.440;2023-02-13T06:55:56;44.61;37.70;58.54;;
37223;Laerm;28026;48.562;14.440;2023-02-13T06:58:27;48.02;36.69;70.69;;
37223;Laerm;28026;48.562;14.440;2023-02-13T07:00:57;43.74;36.91;58.25;;
37223;Laerm;28026;48.562;14.440;2023-02-13T07:03:28;43.32;35.94;58.46;;
37223;Laerm;28026;48.562;14.440;2023-02-13T07:05:59;44.56;37.32;58.42;;
37223;Laerm;28026;48.562;14.440;2023-02-13T07:08:30;43.95;36.20;59.64;;
37223;Laerm;28026;48.562;14.440;2023-02-13T07:11:01;43.65;36.91;58.85;;
37223;Laerm;28026;48.562;14.440;2023-02-13T07:13:32;44.33;37.32;58.74;;
37223;Laerm;28026;48.562;14.440;2023-02-13T07:16:03;43.71;36.91;59.02;;
37223;Laerm;28026;48.562;14.440;2023-02-13T07:18:34;43.77;36.69;58.83;;
37223;Laerm;28026;48.562;14.440;2023-02-13T07:21:07;43.98;37.12;58.93;;
37223;Laerm;28026;48.562;14.440;2023-02-13T07:23:38;43.73;36.91;58.11;;
37223;Laerm;28026;48.562;14.440;2023-02-13T07:26:09;43.93;37.12;58.41;;
37223;Laerm;28026;48.562;14.440;2023-02-13T07:28:41;44.19;36.91;58.47;;
37223;Laerm;28026;48.562;14.440;2023-02-13T07:31:11;44.10;37.88;58.74;;
37223;Laerm;28026;48.562;14.440;2023-02-13T07:33:42;43.82;37.12;60.03;;
37223;Laerm;28026;48.562;14.440;2023-02-13T07:36:13;44.90;36.45;59.63;;
37223;Laerm;28026;48.562;14.440;2023-02-13T07:38:45;44.76;36.20;58.93;;
37223;Laerm;28026;48.562;14.440;2023-02-13T07:41:16;44.36;36.91;60.34;;
37223;Laerm;28026;48.562;14.440;2023-02-13T07:43:46;43.81;35.66;59.50;;
37223;Laerm;28026;48.562;14.440;2023-02-13T07:46:17;44.27;36.91;59.93;;
37223;Laerm;28026;48.562;14.440;2023-02-13T07:48:52;44.76;37.52;60.59;;
37223;Laerm;28026;48.562;14.440;2023-02-13T07:51:22;44.96;37.32;60.22;;
37223;Laerm;28026;48.562;14.440;2023-02-13T07:54:00;44.24;36.91;60.39;;
37223;Laerm;28026;48.562;14.440;2023-02-13T07:56:31;44.44;36.20;60.88;;
37223;Laerm;28026;48.562;14.440;2023-02-13T07:59:02;44.36;36.91;60.02;;
37223;Laerm;28026;48.562;14.440;2023-02-13T08:01:33;44.57;36.69;60.49;;
37223;Laerm;28026;48.562;14.440;2023-02-13T08:04:04;45.45;35.36;60.04;;
37223;Laerm;28026;48.562;14.440;2023-02-13T08:06:38;45.03;36.69;60.94;;
37223;Laerm;28026;48.562;14.440;2023-02-13T08:09:20;45.05;35.94;60.58;;
37223;Laerm;28026;48.562;14.440;2023-02-13T08:12:09;44.39;35.94;60.74;;
37223;Laerm;28026;48.562;14.440;2023-02-13T08:14:41;45.51;35.66;60.52;;
37223;Laerm;28026;48.562;14.440;2023-02-13T08:17:12;45.52;37.12;60.52;;
37223;Laerm;28026;48.562;14.440;2023-02-13T08:19:43;46.12;37.12;64.65;;
37223;Laerm;28026;48.562;14.440;2023-02-13T08:22:14;44.78;35.36;59.95;;
37223;Laerm;28026;48.562;14.440;2023-02-13T08:24:45;45.03;35.66;59.88;;
37223;Laerm;28026;48.562;14.440;2023-02-13T08:27:16;44.90;35.94;60.69;;
37223;Laerm;28026;48.562;14.440;2023-02-13T08:29:48;44.39;36.20;60.03;;
37223;Laerm;28026;48.562;14.440;2023-02-13T08:32:22;44.74;36.69;61.45;;
37223;Laerm;28026;48.562;14.440;2023-02-13T08:34:53;45.43;36.45;60.62;;
37223;Laerm;28026;48.562;14.440;2023-02-13T08:37:24;45.32;36.20;60.51;;
37223;Laerm;28026;48.562;14.440;2023-02-13T08:39:55;45.78;37.52;60.15;;
37223;Laerm;28026;48.562;14.440;2023-02-13T08:42:25;45.19;36.69;60.23;;
37223;Laerm;28026;48.562;14.440;2023-02-13T08:44:56;44.88;35.94;59.72;;
37223;Laerm;28026;48.562;14.440;2023-02-13T08:47:27;45.05;36.20;59.81;;
37223;Laerm;28026;48.562;14.440;2023-02-13T08:49:58;45.28;36.69;60.52;;
37223;Laerm;28026;48.562;14.440;2023-02-13T08:52:29;46.21;36.20;60.55;;
37223;Laerm;28026;48.562;14.440;2023-02-13T08:55:00;46.25;38.67;60.83;;
37223;Laerm;28026;48.562;14.440;2023-02-13T08:57:33;45.91;37.32;60.78;;
37223;Laerm;28026;48.562;14.440;2023-02-13T09:00:04;45.76;36.69;61.02;;
37223;Laerm;28026;48.562;14.440;2023-02-13T09:02:35;45.15;36.20;61.04;;
37223;Laerm;28026;48.562;14.440;2023-02-13T09:05:06;46.98;37.32;62.73;;
37223;Laerm;28026;48.562;14.440;2023-02-13T09:07:37;46.13;36.20;60.64;;
37223;Laerm;28026;48.562;14.440;2023-02-13T09:10:09;46.08;37.88;60.31;;
37223;Laerm;28026;48.562;14.440;2023-02-13T09:12:40;45.84;38.05;60.27;;
37223;Laerm;28026;48.562;14.440;2023-02-13T09:15:10;45.88;37.12;60.76;;
37223;Laerm;28026;48.562;14.440;2023-02-13T09:17:41;46.75;37.70;64.37;;
37223;Laerm;28026;48.562;14.440;2023-02-13T09:20:13;45.80;37.70;62.04;;
37223;Laerm;28026;48.562;14.440;2023-02-13T09:22:44;45.95;37.52;60.05;;
37223;Laerm;28026;48.562;14.440;2023-02-13T09:25:15;45.87;37.52;60.72;;
37223;Laerm;28026;48.562;14.440;2023-02-13T09:27:45;46.79;37.70;66.76;;
37223;Laerm;28026;48.562;14.440;2023-02-13T09:30:17;46.26;37.70;60.55;;
37223;Laerm;28026;48.562;14.440;2023-02-13T09:32:54;46.72;37.70;60.16;;
37223;Laerm;28026;48.562;14.440;2023-02-13T09:35:25;45.90;37.17;60.07;;
37223;Laerm;28026;48.562;14.440;2023-02-13T09:37:59;47.13;36.91;66.21;;
37223;Laerm;28026;48.562;14.440;2023-02-13T09:40:37;46.12;37.12;60.32;;
37223;Laerm;28026;48.562;14.440;2023-02-13T09:43:30;47.07;37.53;59.71;;
37223;Laerm;28026;48.562;14.440;2023-02-13T09:46:27;45.74;37.12;60.49;;
37223;Laerm;28026;48.562;14.440;2023-02-13T09:49:10;45.39;35.94;59.96;;
37223;Laerm;28026;48.562;14.440;2023-02-13T09:51:47;45.33;35.94;60.43;;
37223;Laerm;28026;48.562;14.440;2023-02-13T09:54:21;45.31;36.45;59.58;;
37223;Laerm;28026;48.562;14.440;2023-02-13T09:57:02;45.68;37.32;59.76;;
37223;Laerm;28026;48.562;14.440;2023-02-13T10:00:22;46.40;37.32;67.45;;
37223;Laerm;28026;48.562;14.440;2023-02-13T10:03:33;46.00;37.12;60.07;;
37223;Laerm;28026;48.562;14.440;2023-02-13T10:06:43;47.09;37.70;63.09;;
37223;Laerm;28026;48.562;14.440;2023-02-13T10:16:14;46.96;37.70;60.98;;
37223;Laerm;28026;48.562;14.440;2023-02-13T10:19:15;46.47;37.12;60.36;;
37223;Laerm;28026;48.562;14.440;2023-02-13T10:22:04;47.46;37.70;60.28;;
37223;Laerm;28026;48.562;14.440;2023-02-13T10:24:56;46.87;37.52;60.51;;
37223;Laerm;28026;48.562;14.440;2023-02-13T10:27:39;46.56;36.91;60.04;;
37223;Laerm;28026;48.562;14.440;2023-02-13T10:30:35;46.78;37.88;59.08;;
37223;Laerm;28026;48.562;14.440;2023-02-13T10:33:19;46.48;38.21;61.08;;
37223;Laerm;28026;48.562;14.440;2023-02-13T10:36:01;46.96;38.21;60.21;;
37223;Laerm;28026;48.562;14.440;2023-02-13T10:38:44;47.18;38.21;61.38;;
37223;Laerm;28026;48.562;14.440;2023-02-13T10:41:31;47.19;37.52;60.32;;
37223;Laerm;28026;48.562;14.440;2023-02-13T10:57:13;47.49;36.45;61.31;;
37223;Laerm;28026;48.562;14.440;2023-02-13T11:00:24;47.21;36.69;60.12;;
37223;Laerm;28026;48.562;14.440;2023-02-13T11:02:59;47.98;37.70;67.09;;
37223;Laerm;28026;48.562;14.440;2023-02-13T11:05:38;47.36;36.69;59.71;;
37223;Laerm;28026;48.562;14.440;2023-02-13T11:11:02;48.16;37.88;61.67;;
37223;Laerm;28026;48.562;14.440;2023-02-13T11:13:33;47.38;37.32;60.17;;
37223;Laerm;28026;48.562;14.440;2023-02-13T11:16:08;47.82;37.35;59.83;;
37223;Laerm;28026;48.562;14.440;2023-02-13T11:18:42;47.30;38.21;62.74;;
37223;Laerm;28026;48.562;14.440;2023-02-13T11:21:35;47.87;37.17;60.84;;
37223;Laerm;28026;48.562;14.440;2023-02-13T11:24:27;47.66;37.12;61.16;;
37223;Laerm;28026;48.562;14.440;2023-02-13T11:27:08;47.29;37.88;59.62;;
37223;Laerm;28026;48.562;14.440;2023-02-13T11:30:00;47.14;37.52;61.43;;
37223;Laerm;28026;48.562;14.440;2023-02-13T11:32:34;47.38;37.32;60.67;;
37223;Laerm;28026;48.562;14.440;2023-02-13T11:35:35;47.55;37.88;61.14;;
37223;Laerm;28026;48.562;14.440;2023-02-13T11:40:47;47.69;38.67;60.95;;
37223;Laerm;28026;48.562;14.440;2023-02-13T11:43:30;47.51;36.91;60.90;;
37223;Laerm;28026;48.562;14.440;2023-02-13T11:46:23;47.89;37.70;61.06;;
37223;Laerm;28026;48.562;14.440;2023-02-13T11:49:12;47.28;38.21;60.41;;
37223;Laerm;28026;48.562;14.440;2023-02-13T11:51:56;47.51;37.32;60.95;;
37223;Laerm;28026;48.562;14.440;2023-02-13T11:54:38;51.47;38.67;64.30;;
37223;Laerm;28026;48.562;14.440;2023-02-13T11:59:53;48.06;36.20;61.46;;
37223;Laerm;28026;48.562;14.440;2023-02-13T12:02:44;48.13;38.05;60.44;;
37223;Laerm;28026;48.562;14.440;2023-02-13T12:05:27;47.83;37.12;60.33;;
37223;Laerm;28026;48.562;14.440;2023-02-13T12:08:01;47.72;37.32;60.72;;
37223;Laerm;28026;48.562;14.440;2023-02-13T12:10:36;48.77;38.52;61.29;;
37223;Laerm;28026;48.562;14.440;2023-02-13T12:13:37;48.09;38.05;61.34;;
37223;Laerm;28026;48.562;14.440;2023-02-13T12:16:44;48.00;37.88;61.86;;
37223;Laerm;28026;48.562;14.440;2023-02-13T12:19:28;47.46;37.88;60.52;;
37223;Laerm;28026;48.562;14.440;2023-02-13T12:25:36;47.54;37.70;60.74;;
37223;Laerm;28026;48.562;14.440;2023-02-13T12:28:27;47.54;37.52;60.44;;
37223;Laerm;28026;48.562;14.440;2023-02-13T12:31:29;47.23;37.32;61.16;;
37223;Laerm;28026;48.562;14.440;2023-02-13T12:49:45;47.01;35.36;59.28;;
37223;Laerm;28026;48.562;14.440;2023-02-13T12:59:09;46.96;37.70;62.37;;
37223;Laerm;28026;48.562;14.440;2023-02-13T13:12:26;46.89;38.05;61.62;;
37223;Laerm;28026;48.562;14.440;2023-02-13T13:15:15;46.48;37.32;60.80;;
37223;Laerm;28026;48.562;14.440;2023-02-13T13:26:59;46.65;37.12;60.17;;
37223;Laerm;28026;48.562;14.440;2023-02-13T13:30:32;46.53;37.12;59.63;;
37223;Laerm;28026;48.562;14.440;2023-02-13T13:32:40;46.71;36.69;60.73;;
37223;Laerm;28026;48.562;14.440;2023-02-13T13:35:15;46.53;36.91;61.97;;
37223;Laerm;28026;48.562;14.440;2023-02-13T13:38:05;46.60;35.66;59.71;;
37223;Laerm;28026;48.562;14.440;2023-02-13T13:44:05;46.54;37.12;60.26;;
37223;Laerm;28026;48.562;14.440;2023-02-13T13:47:56;46.72;38.21;67.24;;
37223;Laerm;28026;48.562;14.440;2023-02-13T13:50:25;46.59;37.88;59.90;;
37223;Laerm;28026;48.562;14.440;2023-02-13T13:53:20;46.08;37.52;60.15;;
37223;Laerm;28026;48.562;14.440;2023-02-13T13:58:44;46.61;37.12;60.31;;
37223;Laerm;28026;48.562;14.440;2023-02-13T14:01:29;45.70;35.66;60.16;;
37223;Laerm;28026;48.562;14.440;2023-02-13T14:09:42;46.40;36.20;60.70;;
37223;Laerm;28026;48.562;14.440;2023-02-13T14:15:00;45.53;36.45;59.57;;
37223;Laerm;28026;48.562;14.440;2023-02-13T14:20:40;45.49;36.69;59.95;;
37223;Laerm;28026;48.562;14.440;2023-02-13T14:25:45;45.64;37.32;59.60;;
37223;Laerm;28026;48.562;14.440;2023-02-13T14:28:25;45.67;37.88;60.79;;
37223;Laerm;28026;48.562;14.440;2023-02-13T14:31:36;45.49;36.91;60.29;;
37223;Laerm;28026;48.562;14.440;2023-02-13T14:34:23;45.56;36.45;61.69;;
37223;Laerm;28026;48.562;14.440;2023-02-13T14:37:19;45.16;37.52;60.59;;
37223;Laerm;28026;48.562;14.440;2023-02-13T14:42:56;45.18;37.70;62.49;;
37223;Laerm;28026;48.562;14.440;2023-02-13T14:45:45;45.12;37.12;60.12;;
37223;Laerm;28026;48.562;14.440;2023-02-13T14:48:21;44.97;37.32;59.30;;
37223;Laerm;28026;48.562;14.440;2023-02-13T14:50:56;45.27;38.21;59.95;;
37223;Laerm;28026;48.562;14.440;2023-02-13T14:53:51;45.00;37.12;60.25;;
37223;Laerm;28026;48.562;14.440;2023-02-13T14:56:25;45.32;37.52;60.35;;
37223;Laerm;28026;48.562;14.440;2023-02-13T14:59:16;45.42;37.88;60.77;;
37223;Laerm;28026;48.562;14.440;2023-02-13T15:02:24;48.30;38.21;69.74;;
37223;Laerm;28026;48.562;14.440;2023-02-13T15:05:01;46.95;36.91;60.81;;
37223;Laerm;28026;48.562;14.440;2023-02-13T15:07:44;50.02;35.94;74.88;;
37223;Laerm;28026;48.562;14.440;2023-02-13T15:10:45;50.05;35.94;72.80;;
37223;Laerm;28026;48.562;14.440;2023-02-13T15:13:34;47.08;36.77;64.39;;
37223;Laerm;28026;48.562;14.440;2023-02-13T15:16:13;45.82;35.86;61.69;;
37223;Laerm;28026;48.562;14.440;2023-02-13T15:18:51;46.37;37.12;61.00;;
37223;Laerm;28026;48.562;14.440;2023-02-13T15:21:25;45.38;37.52;60.30;;
37223;Laerm;28026;48.562;14.440;2023-02-13T15:24:03;45.89;36.20;62.63;;
37223;Laerm;28026;48.562;14.440;2023-02-13T15:26:34;44.78;35.94;60.53;;
37223;Laerm;28026;48.562;14.440;2023-02-13T15:29:18;45.03;36.69;59.75;;
37223;Laerm;28026;48.562;14.440;2023-02-13T15:31:49;46.01;37.70;59.95;;
37223;Laerm;28026;48.562;14.440;2023-02-13T15:34:31;46.06;35.36;62.40;;
37223;Laerm;28026;48.562;14.440;2023-02-13T15:37:03;44.82;36.91;60.73;;
37223;Laerm;28026;48.562;14.440;2023-02-13T15:39:34;48.02;36.10;64.59;;
37223;Laerm;28026;48.562;14.440;2023-02-13T15:42:05;44.95;37.52;59.35;;
37223;Laerm;28026;48.562;14.440;2023-02-13T15:44:39;45.28;36.45;59.92;;
37223;Laerm;28026;48.562;14.440;2023-02-13T15:47:29;44.37;35.66;60.17;;
37223;Laerm;28026;48.562;14.440;2023-02-13T15:50:01;44.10;36.20;59.93;;
37223;Laerm;28026;48.562;14.440;2023-02-13T15:52:37;44.61;36.69;61.10;;
37223;Laerm;28026;48.562;14.440;2023-02-13T15:55:27;45.07;36.45;59.35;;
37223;Laerm;28026;48.562;14.440;2023-02-13T15:58:00;44.21;36.45;59.90;;
37223;Laerm;28026;48.562;14.440;2023-02-13T16:00:39;46.25;37.32;61.69;;
37223;Laerm;28026;48.562;14.440;2023-02-13T16:03:17;44.34;36.69;59.95;;
37223;Laerm;28026;48.562;14.440;2023-02-13T16:05:49;44.26;35.94;59.88;;
37223;Laerm;28026;48.562;14.440;2023-02-13T16:08:34;44.40;36.45;59.62;;
37223;Laerm;28026;48.562;14.440;2023-02-13T16:11:36;45.19;36.69;60.44;;
37223;Laerm;28026;48.562;14.440;2023-02-13T16:14:24;45.42;37.12;63.70;;
37223;Laerm;28026;48.562;14.440;2023-02-13T16:17:34;46.44;37.32;64.55;;
37223;Laerm;28026;48.562;14.440;2023-02-13T16:20:29;44.90;36.69;59.21;;
37223;Laerm;28026;48.562;14.440;2023-02-13T16:23:19;47.08;36.69;65.07;;
37223;Laerm;28026;48.562;14.440;2023-02-13T16:25:50;44.90;35.66;59.09;;
37223;Laerm;28026;48.562;14.440;2023-02-13T16:28:26;43.81;35.94;62.49;;
37223;Laerm;28026;48.562;14.440;2023-02-13T16:31:03;43.68;35.04;58.47;;
37223;Laerm;28026;48.562;14.440;2023-02-13T16:33:42;44.30;35.04;58.68;;
37223;Laerm;28026;48.562;14.440;2023-02-13T16:38:50;43.80;35.66;62.90;;
37223;Laerm;28026;48.562;14.440;2023-02-13T16:41:30;43.72;34.69;63.81;;